LRCL/CLJ METAR and TAF weather

Enter ICAO airport designator
Station Type Date Time Source
LRCL METAR 2021/07/29 01:30 UTC NOAA

LRCL 290130Z AUTO 07005KT 9999 NCD 18/16 Q1014


Station Type Date Time Source
LRCL Decoded METAR 2021/07/29 01:30 UTC NOAA

Cluj-Napoca, Romania (LRCL) 46-47N 023-34E 413M
Jul 28, 2021 - 09:30 PM EDT / 2021.07.29 0130 UTC
Wind: from the ENE (070 degrees) at 6 MPH (5 KT):0
Visibility: greater than 7 mile(s):0
Temperature: 64 F (18 C)
Dew Point: 60 F (16 C)
Relative Humidity: 88%
Pressure (altimeter): 29.94 in. Hg (1014 hPa)
ob: LRCL 290130Z AUTO 07005KT 9999 NCD 18/16 Q1014
cycle: 1

Station Type Date Time Source
LRCL TAF 2007/05/23 16:57 UTC NOAA

TAF
AMD LRCL 231657Z 231607 VRB02MPS 9999 SCT030 BKN080
TEMPO 1719 VRB15G20MPS 1500 TSRAGR SCT010 BKN020CB OVC080

Example: see airport list